Terminal Aerodrome Forecast
Issued by NWS Buffalo, NY

Home | Current Version | Previous Version | Text Only | Print | Product List | Glossary On
Versions: 1 2 3 4 5 6 7 8 9 10 11 12 13 14 15 16 17 18 19 20 21 22 23 24 25 26
000
FTUS41 KBUF 221100
TAFROC
TAF
KROC 221139Z 2212/2312 22004KT 5SM BR FEW025 SCT250
     FM221300 VRB03KT P6SM SCT250
     FM221700 25004KT P6SM FEW040 FEW250
     FM230100 18004KT P6SM FEW250
     FM230500 21008KT P6SM FEW250
     FM231100 22012KT P6SM BKN090=

USA.gov is the U.S. government's official web portal to all federal, state and local government web resources and services.